Startpagina
METAR-TAF:

METAR-TAF

Vliegvelden :

Louis Trichardt, Zuid-Afrika

breedte: 23-09-36S, lengte: 029-41-48E, hoogte: 935 m

METAR: ontbreekt

Tijdstip: 13:07 (11:07 UTC)

Verwachting

Dit bericht is 32 uur en het 7 minuten geleden gemaakt, om 03:00 UTC
Verwachting geldig van 16 om 04 UTC tot 16 om 15 UTC
Wind 11 kt uit het oostnoordoosten
Zicht 10 km of meer
geen wolken onder 1500 m en geen cumulonimbus
Wijzigt naar
van 16 om 07 UTC tot 16 om 09 UTC
Verspreide wolken op 3000 ft
Wijzigt naar
van 16 om 10 UTC tot 16 om 12 UTC
Wind 7 kt uit het noordnoordwesten
Zicht 10 km of meer
geen wolken onder 1500 m en geen cumulonimbus

TAF: FALM 160300Z 1604/1615 07011KT CAVOK TX29/1613Z TN16/1604Z BECMG 1607/1609 SCT030 BECMG 1610/1612 34007KT CAVOK

Waarnemingen en weersverwachtingen van meer dan 4000 vliegvelden (METAR en TAF).

De beschikbare stations zijn de gele en rode punten op de kaart.

Ga met uw muis naar het station om de naam te zien.

Klik dan om waarnemingen en weersverwachtingen te zien.

kaart wijzigen: klik op de groene knoppen met een zwart kruis om in te zoomen, op de groene knop met een streepje om uit te zoomen of op de groene pijlen voor aangrenzende kaarten.


METAR-TAF: